createdAt,value
2022-08-24T00:00:35.350Z,100603.88
2022-08-24T00:03:07.508Z,100621.69
2022-08-24T00:05:35.274Z,100616.19
2022-08-24T00:08:03.224Z,100617.69
2022-08-24T00:10:30.620Z,100609.03
2022-08-24T00:12:58.717Z,100587.56
2022-08-24T00:15:26.257Z,100604.44
2022-08-24T00:17:53.483Z,100597.31
2022-08-24T00:20:20.858Z,100605.13
2022-08-24T00:22:48.367Z,100578.34
2022-08-24T00:25:20.024Z,100590.28
2022-08-24T00:27:47.951Z,100584.16
2022-08-24T00:30:18.008Z,100573.84
2022-08-24T00:32:47.058Z,100581.06
2022-08-24T00:35:18.371Z,100565.50
2022-08-24T00:37:48.105Z,100579.59
2022-08-24T00:40:20.135Z,100581.91
2022-08-24T00:42:48.205Z,100584.25
2022-08-24T00:45:16.491Z,100589.97
2022-08-24T00:47:51.731Z,100586.88
2022-08-24T00:50:25.767Z,100578.34
2022-08-24T00:53:06.461Z,100567.91
2022-08-24T00:55:42.292Z,100574.66
2022-08-24T00:58:17.027Z,100577.25
2022-08-24T01:00:49.947Z,100580.25
2022-08-24T01:03:18.277Z,100582.78
2022-08-24T01:05:47.039Z,100584.69
2022-08-24T01:08:17.153Z,100585.69
2022-08-24T01:10:49.572Z,100577.34
2022-08-24T01:13:17.360Z,100580.25
2022-08-24T01:15:48.740Z,100564.03
2022-08-24T01:18:38.291Z,100579.53
2022-08-24T01:21:05.773Z,100572.59
2022-08-24T01:23:43.608Z,100550.72
2022-08-24T01:26:18.369Z,100567.13
2022-08-24T01:28:49.214Z,100568.38
2022-08-24T01:31:22.405Z,100569.41
2022-08-24T01:33:52.040Z,100573.81
2022-08-24T01:36:37.864Z,100576.09
2022-08-24T01:39:34.573Z,100568.75
2022-08-24T01:42:02.507Z,100584.50
2022-08-24T01:44:34.677Z,100589.31
2022-08-24T01:47:07.424Z,100594.84
2022-08-24T01:49:39.444Z,100580.84
2022-08-24T01:52:10.000Z,100582.09
2022-08-24T01:54:38.041Z,100601.63
2022-08-24T01:57:05.600Z,100598.81
2022-08-24T01:59:33.468Z,100610.25
2022-08-24T02:02:16.410Z,100601.06
2022-08-24T02:04:44.272Z,100616.66
2022-08-24T02:07:13.590Z,100619.44
2022-08-24T02:09:41.453Z,100599.44
2022-08-24T02:12:09.235Z,100610.91
2022-08-24T02:14:37.699Z,100613.53
2022-08-24T02:17:06.811Z,100614.38
2022-08-24T02:19:34.928Z,100602.00
2022-08-24T02:22:02.590Z,100598.81
2022-08-24T02:24:30.657Z,100611.88
2022-08-24T02:26:58.513Z,100612.22
2022-08-24T02:29:26.013Z,100620.41
2022-08-24T02:31:53.292Z,100607.94
2022-08-24T02:34:21.743Z,100626.31
2022-08-24T02:36:49.642Z,100624.81
2022-08-24T02:39:16.976Z,100621.06
2022-08-24T02:41:47.036Z,100622.75
2022-08-24T02:44:14.517Z,100627.25
2022-08-24T02:46:41.891Z,100624.53
2022-08-24T02:49:10.710Z,100617.88
2022-08-24T02:51:45.416Z,100612.53
2022-08-24T02:54:18.840Z,100622.56
2022-08-24T02:56:48.924Z,100631.88
2022-08-24T02:59:17.680Z,100633.47
2022-08-24T03:01:45.540Z,100633.84
2022-08-24T03:04:14.536Z,100632.34
2022-08-24T03:06:42.499Z,100639.94
2022-08-24T03:09:10.309Z,100636.25
2022-08-24T03:11:37.971Z,100649.13
2022-08-24T03:14:06.102Z,100647.59
2022-08-24T03:16:33.589Z,100664.06
2022-08-24T03:19:02.026Z,100655.69
2022-08-24T03:21:33.532Z,100645.94
2022-08-24T03:24:01.024Z,100663.69
2022-08-24T03:26:28.843Z,100665.75
2022-08-24T03:28:56.685Z,100658.03
2022-08-24T03:31:27.061Z,100661.44
2022-08-24T03:33:54.729Z,100672.88
2022-08-24T03:36:22.641Z,100662.09
2022-08-24T03:38:50.639Z,100685.03
2022-08-24T03:41:19.487Z,100672.13
2022-08-24T03:43:46.949Z,100670.84
2022-08-24T03:46:21.601Z,100680.78
2022-08-24T03:48:50.516Z,100683.50
2022-08-24T03:51:24.122Z,100691.31
2022-08-24T03:53:52.321Z,100691.66
2022-08-24T03:56:22.176Z,100693.94
2022-08-24T03:58:49.693Z,100686.25
2022-08-24T04:01:17.884Z,100694.41
2022-08-24T04:03:47.131Z,100684.69
2022-08-24T04:06:17.827Z,100685.47
2022-08-24T04:08:46.353Z,100691.44
2022-08-24T04:11:18.006Z,100685.47
2022-08-24T04:13:46.818Z,100692.22
2022-08-24T04:16:17.124Z,100690.69
2022-08-24T04:18:46.147Z,100679.81
2022-08-24T04:21:23.685Z,100679.06
2022-08-24T04:23:52.711Z,100689.38
2022-08-24T04:26:28.679Z,100689.00
2022-08-24T04:29:12.713Z,100681.72
2022-08-24T04:31:46.674Z,100687.81
2022-08-24T04:34:16.135Z,100678.63
2022-08-24T04:36:45.250Z,100686.66
2022-08-24T04:39:13.825Z,100702.16
2022-08-24T04:41:57.388Z,100696.31
2022-08-24T04:44:32.382Z,100695.69
2022-08-24T04:47:01.597Z,100700.09
2022-08-24T04:49:29.991Z,100696.19
2022-08-24T04:51:57.351Z,100698.38
2022-08-24T04:54:25.323Z,100699.16
2022-08-24T04:57:15.844Z,100701.97
2022-08-24T04:59:46.975Z,100699.50
2022-08-24T05:02:14.315Z,100703.75
2022-08-24T05:04:41.913Z,100708.63
2022-08-24T05:07:09.572Z,100708.47
2022-08-24T05:09:41.083Z,100712.84
2022-08-24T05:12:09.593Z,100716.00
2022-08-24T05:14:40.487Z,100710.28
2022-08-24T05:17:09.315Z,100718.47
2022-08-24T05:19:37.908Z,100706.03
2022-08-24T05:22:05.685Z,100723.94
2022-08-24T05:24:33.379Z,100722.09
2022-08-24T05:27:01.009Z,100709.31
2022-08-24T05:29:29.047Z,100707.47
2022-08-24T05:31:56.375Z,100717.47
2022-08-24T05:34:24.927Z,100721.47
2022-08-24T05:36:52.724Z,100730.78
2022-08-24T05:39:42.351Z,100722.25
2022-08-24T05:42:10.255Z,100722.94
2022-08-24T05:44:44.329Z,100710.53
2022-08-24T05:47:11.801Z,100718.84
2022-08-24T05:49:41.556Z,100724.94
2022-08-24T05:52:10.354Z,100728.31
2022-08-24T05:54:37.836Z,100726.53
2022-08-24T05:57:06.547Z,100733.09
2022-08-24T05:59:43.505Z,100730.13
2022-08-24T06:02:16.266Z,100725.28
2022-08-24T06:04:45.218Z,100738.41
2022-08-24T06:07:14.256Z,100732.31
2022-08-24T06:09:45.861Z,100738.41
2022-08-24T06:12:13.713Z,100742.91
2022-08-24T06:14:46.276Z,100753.38
2022-08-24T06:17:13.957Z,100754.78
2022-08-24T06:19:43.885Z,100752.41
2022-08-24T06:22:11.123Z,100759.56
2022-08-24T06:24:59.078Z,100741.34
2022-08-24T06:27:29.061Z,100752.69
2022-08-24T06:30:01.343Z,100756.19
2022-08-24T06:32:59.144Z,100762.19
2022-08-24T06:35:38.253Z,100744.03
2022-08-24T06:38:06.934Z,100762.75
2022-08-24T06:40:35.028Z,100765.25
2022-08-24T06:43:04.476Z,100753.94
2022-08-24T06:45:45.913Z,100774.72
2022-08-24T06:48:16.605Z,100754.16
2022-08-24T06:50:45.152Z,100767.94
2022-08-24T06:53:15.012Z,100759.09
2022-08-24T06:55:54.278Z,100763.28
2022-08-24T06:58:22.884Z,100765.91
2022-08-24T07:00:50.408Z,100766.56
2022-08-24T07:03:21.108Z,100774.34
2022-08-24T07:05:57.920Z,100779.56
2022-08-24T07:08:37.536Z,100769.84
2022-08-24T07:11:06.126Z,100782.72
2022-08-24T07:13:34.374Z,100772.41
2022-08-24T07:16:02.099Z,100774.09
2022-08-24T07:18:30.021Z,100770.94
2022-08-24T07:21:01.486Z,100774.34
2022-08-24T07:23:59.415Z,100767.59
2022-08-24T07:26:29.978Z,100764.63
2022-08-24T07:29:06.498Z,100771.59
2022-08-24T07:31:43.992Z,100782.97
2022-08-24T07:34:17.520Z,100789.09
2022-08-24T07:36:45.634Z,100796.22
2022-08-24T07:39:13.400Z,100791.00
2022-08-24T07:42:02.672Z,100784.44
2022-08-24T07:44:31.885Z,100796.47
2022-08-24T07:47:07.253Z,100798.56
2022-08-24T07:49:47.100Z,100793.97
2022-08-24T07:52:14.539Z,100798.78
2022-08-24T07:54:41.859Z,100791.56
2022-08-24T07:57:09.373Z,100800.84
2022-08-24T07:59:37.997Z,100803.03
2022-08-24T08:02:05.821Z,100804.47
2022-08-24T08:04:34.384Z,100810.56
2022-08-24T08:07:02.012Z,100811.13
2022-08-24T08:09:32.388Z,100816.75
2022-08-24T08:12:00.258Z,100804.03
2022-08-24T08:14:27.898Z,100814.00
2022-08-24T08:16:56.235Z,100806.63
2022-08-24T08:19:23.723Z,100819.63
2022-08-24T08:22:11.862Z,100804.22
2022-08-24T08:25:02.707Z,100813.84
2022-08-24T08:27:30.069Z,100819.38
2022-08-24T08:29:57.728Z,100810.88
2022-08-24T08:32:25.192Z,100817.81
2022-08-24T08:34:52.478Z,100826.09
2022-08-24T08:37:19.950Z,100828.28
2022-08-24T08:39:47.720Z,100825.81
2022-08-24T08:42:38.817Z,100823.16
2022-08-24T08:45:19.077Z,100832.59
2022-08-24T08:48:33.397Z,100830.75
2022-08-24T08:51:16.480Z,100827.72
2022-08-24T08:54:12.346Z,100825.59
2022-08-24T08:56:59.345Z,100827.19
2022-08-24T08:59:37.429Z,100829.28
2022-08-24T09:02:31.488Z,100835.69
2022-08-24T09:05:09.480Z,100832.00
2022-08-24T09:08:04.998Z,100825.84
2022-08-24T09:10:41.446Z,100830.09
2022-08-24T09:13:34.284Z,100834.09
2022-08-24T09:16:15.673Z,100826.00
2022-08-24T09:19:20.744Z,100841.13
2022-08-24T09:22:08.641Z,100833.16
2022-08-24T09:24:50.157Z,100820.50
2022-08-24T09:28:01.326Z,100825.44
2022-08-24T09:30:58.357Z,100822.13
2022-08-24T09:33:37.845Z,100823.03
2022-08-24T09:36:22.658Z,100824.47
2022-08-24T09:38:59.065Z,100815.97
2022-08-24T09:41:40.424Z,100815.03
2022-08-24T09:44:41.806Z,100828.84
2022-08-24T09:47:15.511Z,100816.41
2022-08-24T09:49:57.674Z,100826.03
2022-08-24T09:52:31.771Z,100810.69
2022-08-24T09:55:26.898Z,100821.09
2022-08-24T09:58:16.115Z,100820.69
2022-08-24T10:01:18.012Z,100814.53
2022-08-24T10:04:08.813Z,100819.69
2022-08-24T10:06:47.953Z,100821.69
2022-08-24T10:09:27.608Z,100812.28
2022-08-24T10:12:04.340Z,100807.38
2022-08-24T10:14:41.488Z,100798.47
2022-08-24T10:17:29.964Z,100807.44
2022-08-24T10:20:15.698Z,100792.75
2022-08-24T10:23:01.277Z,100805.25
2022-08-24T10:25:37.890Z,100813.28
2022-08-24T10:28:42.450Z,100805.47
2022-08-24T10:31:14.900Z,100818.31
2022-08-24T10:34:00.815Z,100815.81
2022-08-24T10:36:56.765Z,100824.09
2022-08-24T10:39:42.802Z,100819.06
2022-08-24T10:43:06.752Z,100828.22
2022-08-24T10:45:49.408Z,100823.81
2022-08-24T10:48:50.864Z,100812.09
2022-08-24T10:51:50.456Z,100825.44
2022-08-24T10:54:20.316Z,100817.25
2022-08-24T10:56:56.518Z,100828.38
2022-08-24T10:59:29.900Z,100819.44
2022-08-24T11:02:34.861Z,100825.16
2022-08-24T11:05:14.665Z,100812.59
2022-08-24T11:08:08.999Z,100826.53
2022-08-24T11:10:39.377Z,100817.88
2022-08-24T11:13:26.836Z,100826.59
2022-08-24T11:16:03.273Z,100838.22
2022-08-24T11:18:52.479Z,100832.28
2022-08-24T11:21:45.261Z,100823.84
2022-08-24T11:24:29.593Z,100826.16
2022-08-24T11:27:06.819Z,100816.03
2022-08-24T11:29:52.378Z,100841.59
2022-08-24T11:32:45.873Z,100834.78
2022-08-24T11:35:19.814Z,100844.19
2022-08-24T11:37:49.437Z,100836.22
2022-08-24T11:40:18.334Z,100843.31
2022-08-24T11:43:05.589Z,100851.06
2022-08-24T11:45:41.033Z,100853.50
2022-08-24T11:48:29.776Z,100838.25
2022-08-24T11:50:57.377Z,100852.44
2022-08-24T11:56:38.927Z,100824.03
2022-08-24T11:59:12.660Z,100852.91
2022-08-24T12:02:04.755Z,100854.53
2022-08-24T12:04:31.984Z,100848.16
2022-08-24T12:06:59.456Z,100850.38
2022-08-24T12:09:30.904Z,100849.53
2022-08-24T12:12:07.858Z,100838.00
2022-08-24T12:14:48.813Z,100840.69
2022-08-24T12:17:23.550Z,100833.50
2022-08-24T12:20:03.620Z,100844.22
2022-08-24T12:22:32.463Z,100840.00
2022-08-24T12:25:25.002Z,100845.81
2022-08-24T12:27:54.456Z,100855.28
2022-08-24T12:30:22.552Z,100845.59
2022-08-24T12:33:07.258Z,100844.97
2022-08-24T12:35:36.918Z,100851.06
2022-08-24T12:38:04.408Z,100855.03
2022-08-24T12:40:48.193Z,100858.00
2022-08-24T12:43:25.540Z,100858.59
2022-08-24T12:45:56.821Z,100847.41
2022-08-24T12:48:49.678Z,100846.50
2022-08-24T12:51:23.002Z,100844.75
2022-08-24T12:54:26.884Z,100853.72
2022-08-24T12:57:13.275Z,100835.41
2022-08-24T12:59:47.421Z,100862.59
2022-08-24T13:02:30.734Z,100844.94
2022-08-24T13:05:05.477Z,100850.84
2022-08-24T13:07:42.841Z,100855.03
2022-08-24T13:10:35.451Z,100863.47
2022-08-24T13:13:05.509Z,100856.75
2022-08-24T13:15:33.024Z,100864.97
2022-08-24T13:18:02.984Z,100863.94
2022-08-24T13:20:36.628Z,100863.25
2022-08-24T13:23:19.047Z,100868.97
2022-08-24T13:25:51.787Z,100864.75
2022-08-24T13:28:22.051Z,100864.75
2022-08-24T13:31:16.616Z,100868.97
2022-08-24T13:33:57.290Z,100864.75
2022-08-24T13:36:46.205Z,100872.75
2022-08-24T13:39:44.714Z,100867.72
2022-08-24T13:42:58.722Z,100856.75
2022-08-24T13:45:41.061Z,100874.66
2022-08-24T13:48:14.585Z,100871.50
2022-08-24T13:51:25.621Z,100868.53
2022-08-24T13:54:26.465Z,100870.41
2022-08-24T13:57:09.216Z,100868.72
2022-08-24T13:59:56.187Z,100884.53
2022-08-24T14:03:00.852Z,100872.56
2022-08-24T14:05:44.928Z,100864.56
2022-08-24T14:08:27.629Z,100867.72
2022-08-24T14:11:06.907Z,100871.50
2022-08-24T14:13:49.726Z,100873.19
2022-08-24T14:16:47.697Z,100867.72
2022-08-24T14:19:36.754Z,100865.63
2022-08-24T14:22:09.960Z,100866.25
2022-08-24T14:24:46.456Z,100864.13
2022-08-24T14:27:35.752Z,100863.50
2022-08-24T14:30:18.454Z,100875.97
2022-08-24T14:33:00.806Z,100861.63
2022-08-24T14:35:31.997Z,100867.72
2022-08-24T14:38:21.750Z,100867.31
2022-08-24T14:40:52.188Z,100860.16
2022-08-24T14:43:28.595Z,100861.41
2022-08-24T14:46:29.328Z,100860.97
2022-08-24T14:49:24.010Z,100871.72
2022-08-24T14:52:11.089Z,100860.34
2022-08-24T14:55:04.371Z,100869.00
2022-08-24T14:58:01.560Z,100861.81
2022-08-24T15:00:52.979Z,100865.63
2022-08-24T15:03:47.902Z,100864.09
2022-08-24T15:06:27.978Z,100875.31
2022-08-24T15:09:27.118Z,100875.94
2022-08-24T15:12:04.147Z,100878.47
2022-08-24T15:14:48.265Z,100884.81
2022-08-24T15:17:29.182Z,100869.41
2022-08-24T15:20:23.064Z,100877.41
2022-08-24T15:23:03.989Z,100863.91
2022-08-24T15:26:06.039Z,100888.56
2022-08-24T15:28:34.633Z,100875.50
2022-08-24T15:31:08.122Z,100867.91
2022-08-24T15:34:01.322Z,100877.00
2022-08-24T15:36:33.076Z,100867.28
2022-08-24T15:39:03.433Z,100859.44
2022-08-24T15:41:35.682Z,100872.06
2022-08-24T15:44:09.532Z,100873.16
2022-08-24T15:46:57.633Z,100873.84
2022-08-24T15:49:29.318Z,100875.66
2022-08-24T15:52:06.429Z,100879.88
2022-08-24T15:54:40.875Z,100881.78
2022-08-24T15:57:17.567Z,100874.47
2022-08-24T15:59:50.269Z,100877.63
2022-08-24T16:02:30.667Z,100858.16
2022-08-24T16:05:10.980Z,100871.03
2022-08-24T16:08:04.375Z,100872.06
2022-08-24T16:10:40.136Z,100878.56
2022-08-24T16:13:24.023Z,100876.88
2022-08-24T16:16:09.083Z,100875.63
2022-08-24T16:18:53.481Z,100863.16
2022-08-24T16:21:34.088Z,100868.41
2022-08-24T16:24:06.806Z,100870.72
2022-08-24T16:26:57.017Z,100864.59
2022-08-24T16:29:33.273Z,100878.97
2022-08-24T16:32:22.739Z,100881.25
2022-08-24T16:35:01.841Z,100870.88
2022-08-24T16:37:29.121Z,100887.13
2022-08-24T16:39:56.632Z,100862.41
2022-08-24T16:42:27.307Z,100886.03
2022-08-24T16:44:55.569Z,100891.16
2022-08-24T16:47:23.398Z,100902.50
2022-08-24T16:49:51.724Z,100887.34
2022-08-24T16:52:19.538Z,100909.66
2022-08-24T16:54:47.572Z,100907.38
2022-08-24T16:57:19.021Z,100909.91
2022-08-24T16:59:47.964Z,100913.66
2022-08-24T17:02:17.192Z,100907.25
2022-08-24T17:04:45.928Z,100920.09
2022-08-24T17:07:16.619Z,100899.25
2022-08-24T17:09:47.025Z,100912.09
2022-08-24T17:12:15.177Z,100907.25
2022-08-24T17:14:43.601Z,100917.56
2022-08-24T17:17:14.160Z,100908.69
2022-08-24T17:19:43.436Z,100905.41
2022-08-24T17:22:16.137Z,100917.81
2022-08-24T17:24:44.993Z,100919.72
2022-08-24T17:27:13.948Z,100926.66
2022-08-24T17:29:55.936Z,100908.72
2022-08-24T17:32:31.343Z,100910.59
2022-08-24T17:35:06.131Z,100931.00
2022-08-24T17:37:35.276Z,100925.16
2022-08-24T17:40:05.808Z,100914.28
2022-08-24T17:42:50.384Z,100929.09
2022-08-24T17:45:22.896Z,100921.84
2022-08-24T17:47:50.788Z,100932.88
2022-08-24T17:50:19.919Z,100929.44
2022-08-24T17:52:48.083Z,100931.09
2022-08-24T17:55:17.245Z,100938.25
2022-08-24T17:57:51.745Z,100930.97
2022-08-24T18:00:19.111Z,100952.91
2022-08-24T18:02:46.895Z,100954.84
2022-08-24T18:05:15.019Z,100939.50
2022-08-24T18:07:53.504Z,100957.13
2022-08-24T18:10:25.750Z,100950.31
2022-08-24T18:12:53.427Z,100953.50
2022-08-24T18:15:20.948Z,100956.38
2022-08-24T18:17:51.760Z,100967.34
2022-08-24T18:20:24.939Z,100969.91
2022-08-24T18:22:54.338Z,100976.00
2022-08-24T18:25:23.361Z,100979.81
2022-08-24T18:27:54.704Z,100968.88
2022-08-24T18:30:30.504Z,100974.19
2022-08-24T18:32:59.949Z,100984.97
2022-08-24T18:35:28.355Z,100980.13
2022-08-24T18:37:57.432Z,100989.75
2022-08-24T18:40:27.226Z,100983.81
2022-08-24T18:43:02.160Z,100984.88
2022-08-24T18:45:31.940Z,100984.34
2022-08-24T18:47:59.258Z,100987.00
2022-08-24T18:50:29.640Z,100981.53
2022-08-24T18:53:00.553Z,100982.78
2022-08-24T18:55:28.194Z,100982.91
2022-08-24T18:57:55.660Z,100984.00
2022-08-24T19:00:23.078Z,100981.03
2022-08-24T19:02:50.719Z,100979.81
2022-08-24T19:05:24.018Z,100987.63
2022-08-24T19:07:54.792Z,100983.19
2022-08-24T19:10:27.235Z,100961.59
2022-08-24T19:13:06.653Z,100978.00
2022-08-24T19:15:40.342Z,100972.84
2022-08-24T19:18:11.357Z,100980.84
2022-08-24T19:20:48.254Z,100975.41
2022-08-24T19:23:23.960Z,100973.63
2022-08-24T19:25:52.515Z,100972.38
2022-08-24T19:28:21.527Z,100973.16
2022-08-24T19:30:49.136Z,100972.22
2022-08-24T19:33:23.931Z,100969.69
2022-08-24T19:35:52.238Z,100968.00
2022-08-24T19:38:24.649Z,100950.63
2022-08-24T19:40:54.996Z,100976.13
2022-08-24T19:43:24.695Z,100964.56
2022-08-24T19:46:10.800Z,100965.84
2022-08-24T19:48:40.106Z,100951.34
2022-08-24T19:51:11.811Z,100948.16
2022-08-24T19:53:40.124Z,100964.31
2022-08-24T19:56:07.791Z,100960.06
2022-08-24T19:58:58.967Z,100967.22
2022-08-24T20:01:34.605Z,100972.31
2022-08-24T20:04:06.209Z,100968.31
2022-08-24T20:06:36.250Z,100975.84
2022-08-24T20:09:04.585Z,100971.28
2022-08-24T20:11:32.032Z,100977.28
2022-08-24T20:13:59.640Z,100976.38
2022-08-24T20:16:31.759Z,100980.63
2022-08-24T20:19:00.592Z,100958.78
2022-08-24T20:21:30.140Z,100978.28
2022-08-24T20:24:01.802Z,100974.44
2022-08-24T20:26:33.437Z,100975.88
2022-08-24T20:29:00.948Z,100971.34
2022-08-24T20:31:28.970Z,100972.38
2022-08-24T20:33:57.493Z,100970.88
2022-08-24T20:36:37.450Z,100979.06
2022-08-24T20:39:12.777Z,100979.81
2022-08-24T20:41:40.670Z,100961.84
2022-08-24T20:44:09.387Z,100977.16
2022-08-24T20:46:38.679Z,100971.34
2022-08-24T20:49:07.918Z,100978.22
2022-08-24T20:51:42.322Z,100963.06
2022-08-24T20:54:11.475Z,100967.59
2022-08-24T20:56:39.054Z,100974.16
2022-08-24T20:59:09.885Z,100970.31
2022-08-24T21:01:38.656Z,100975.78
2022-08-24T21:04:06.084Z,100975.31
2022-08-24T21:06:34.357Z,100965.13
2022-08-24T21:09:02.484Z,100978.59
2022-08-24T21:11:30.420Z,100973.25
2022-08-24T21:13:58.600Z,100980.19
2022-08-24T21:16:26.583Z,100974.44
2022-08-24T21:18:53.916Z,100980.00
2022-08-24T21:21:21.450Z,100981.22
2022-08-24T21:23:48.798Z,100968.41
2022-08-24T21:26:21.644Z,100978.28
2022-08-24T21:28:50.027Z,100965.19
2022-08-24T21:31:17.385Z,100986.66
2022-08-24T21:34:03.306Z,100993.72
2022-08-24T21:36:34.315Z,100987.44
2022-08-24T21:39:05.494Z,100992.25
2022-08-24T21:41:36.879Z,100984.41
2022-08-24T21:44:04.394Z,100984.06
2022-08-24T21:46:36.932Z,100984.97
2022-08-24T21:49:05.198Z,100986.31
2022-08-24T21:51:33.259Z,100980.66
2022-08-24T21:54:01.445Z,100978.31
2022-08-24T21:56:31.877Z,100989.34
2022-08-24T21:58:59.569Z,100983.00
2022-08-24T22:01:29.008Z,100986.09
2022-08-24T22:03:58.313Z,100992.06
2022-08-24T22:06:30.646Z,100993.66
2022-08-24T22:08:59.368Z,100986.63
2022-08-24T22:11:27.189Z,100996.28
2022-08-24T22:13:54.777Z,100995.44
2022-08-24T22:16:22.745Z,101003.94
2022-08-24T22:18:50.310Z,100993.81
2022-08-24T22:21:22.863Z,100963.19
2022-08-24T22:23:50.536Z,100988.91
2022-08-24T22:26:17.807Z,100983.19
2022-08-24T22:28:45.085Z,100982.34
2022-08-24T22:31:19.522Z,100975.31
2022-08-24T22:33:47.766Z,100983.31
2022-08-24T22:36:16.085Z,100971.16
2022-08-24T22:38:44.087Z,100977.91
2022-08-24T22:41:11.900Z,100969.66
2022-08-24T22:43:58.513Z,100964.28
2022-08-24T22:46:26.347Z,100969.44
2022-08-24T22:48:54.481Z,100969.25
2022-08-24T22:51:22.124Z,100965.22
2022-08-24T22:53:49.446Z,100972.25
2022-08-24T22:56:23.016Z,100951.94
2022-08-24T22:58:50.673Z,100953.28
2022-08-24T23:01:23.504Z,100947.41
2022-08-24T23:03:51.141Z,100947.41
2022-08-24T23:06:19.127Z,100958.25
2022-08-24T23:08:46.660Z,100957.59
2022-08-24T23:11:15.037Z,100964.06
2022-08-24T23:13:42.799Z,100964.06
2022-08-24T23:16:14.036Z,100952.59
2022-08-24T23:18:59.822Z,100959.91
2022-08-24T23:21:27.807Z,100960.00
2022-08-24T23:23:55.996Z,100959.06
2022-08-24T23:26:23.345Z,100966.19
2022-08-24T23:28:50.854Z,100957.72
2022-08-24T23:31:20.317Z,100956.34
2022-08-24T23:33:47.804Z,100942.88
2022-08-24T23:36:18.319Z,100943.16
2022-08-24T23:38:45.601Z,100959.63
2022-08-24T23:41:15.183Z,100952.47
2022-08-24T23:43:43.481Z,100946.34
2022-08-24T23:46:12.374Z,100949.69
2022-08-24T23:48:40.990Z,100928.59
2022-08-24T23:51:13.329Z,100947.47
2022-08-24T23:53:46.932Z,100928.25
2022-08-24T23:56:31.727Z,100950.69
2022-08-24T23:59:06.573Z,100944.13
